YBCG/OOL METAR and TAF weather

Enter ICAO airport designator
Station Type Date Time Source
YBCG METAR 2020/09/22 20:00 UTC NOAA

YBCG 222000Z AUTO 23002KT 9999 // NCD 19/19 Q1014


Station Type Date Time Source
YBCG Decoded METAR 2020/09/22 20:00 UTC NOAA

Coolangatta Airport Aws, Australia (YBCG) 28-10S 153-30E 6M
Sep 22, 2020 - 04:00 PM EDT / 2020.09.22 2000 UTC
Wind: from the SW (230 degrees) at 2 MPH (2 KT):0
Visibility: greater than 7 mile(s):0
Temperature: 66 F (19 C)
Dew Point: 66 F (19 C)
Relative Humidity: 100%
Pressure (altimeter): 29.94 in. Hg (1014 hPa)
ob: YBCG 222000Z AUTO 23002KT 9999 // NCD 19/19 Q1014
cycle: 20

Station Type Date Time Source
YBCG TAF 2020/09/22 18:33 UTC NOAA

TAF YBCG 221706Z 2218/2318 27006KT CAVOK
FM230000 01010KT CAVOK
FM231000 25005KT CAVOK

Example: see airport list